Time;durP1;ratioP1;P1;durP2;ratioP2;P2;SDS_P1;SDS_P2;PMS_P1;PMS_P2;Temp;Humidity;BMP_temperature;BMP_pressure;BME280_temperature;BME280_humidity;BME280_pressure;Samples;Min_cycle;Max_cycle;Signal;HPM_P1;HPM_P2
2023/12/28 00:02:01;;;;;;;5.27;2.57;;;;;;;4.55;81.74;98116.16;5100327;28;20295;-78
2023/12/28 00:04:29;;;;;;;3.47;2.60;;;;;;;4.58;80.32;98095.06;5100053;28;20187;-78
2023/12/28 00:06:56;;;;;;;4.60;3.00;;;;;;;4.67;79.54;98102.53;5100214;28;20198;-78
2023/12/28 00:09:22;;;;;;;3.20;2.10;;;;;;;4.67;80.32;98113.00;5100395;28;20202;-79
2023/12/28 00:11:49;;;;;;;4.17;2.10;;;;;;;4.67;79.69;98110.38;5100143;28;20208;-80
2023/12/28 00:14:15;;;;;;;3.80;2.53;;;;;;;4.66;79.93;98113.91;5100079;28;20218;-80
2023/12/28 00:16:42;;;;;;;4.57;3.43;;;;;;;4.75;78.11;98103.00;5099948;28;20218;-78
2023/12/28 00:19:10;;;;;;;3.27;2.50;;;;;;;4.77;79.76;98110.78;5100022;28;20226;-78
2023/12/28 00:21:36;;;;;;;4.73;2.40;;;;;;;4.88;78.88;98114.59;5100073;28;20235;-79
2023/12/28 00:24:03;;;;;;;2.00;1.80;;;;;;;5.07;76.58;98110.19;5100041;28;20258;-79
2023/12/28 00:26:29;;;;;;;2.63;1.67;;;;;;;5.30;74.08;98102.06;5099893;28;20194;-79
2023/12/28 00:28:56;;;;;;;1.43;1.27;;;;;;;5.44;72.48;98094.38;5100012;28;20209;-79
2023/12/28 00:31:23;;;;;;;2.60;1.40;;;;;;;5.45;72.74;98109.16;5099164;28;20271;-78
2023/12/28 00:33:50;;;;;;;1.90;1.43;;;;;;;5.47;71.80;98096.84;5099579;28;20259;-78
2023/12/28 00:36:17;;;;;;;1.77;1.20;;;;;;;5.51;71.24;98101.00;5099796;28;20281;-78
2023/12/28 00:38:44;;;;;;;1.20;1.10;;;;;;;5.50;71.58;98122.91;5099817;28;20215;-78
2023/12/28 00:41:10;;;;;;;1.50;1.30;;;;;;;5.45;72.05;98116.19;5099756;28;20263;-78
2023/12/28 00:43:37;;;;;;;1.83;1.53;;;;;;;5.41;71.18;98105.03;5099886;28;20197;-78
2023/12/28 00:46:03;;;;;;;2.50;1.67;;;;;;;5.44;71.45;98104.84;5099535;28;20196;-78
2023/12/28 00:48:30;;;;;;;2.47;1.90;;;;;;;5.44;71.34;98110.09;5099540;28;20262;-78
2023/12/28 00:50:58;;;;;;;2.40;1.90;;;;;;;5.49;68.92;98087.13;5099585;28;20191;-78
2023/12/28 00:53:26;;;;;;;2.23;2.03;;;;;;;5.53;69.15;98095.69;5099552;28;20189;-78
2023/12/28 00:55:53;;;;;;;2.07;1.87;;;;;;;5.45;69.80;98093.44;5099244;28;20258;-78
2023/12/28 00:58:20;;;;;;;4.00;3.00;;;;;;;5.33;71.83;98111.56;5098707;28;20263;-78
2023/12/28 01:00:48;;;;;;;5.37;2.90;;;;;;;5.24;72.32;98110.22;5099288;28;20259;-79
2023/12/28 01:03:15;;;;;;;3.43;2.40;;;;;;;5.21;71.91;98113.00;5098942;28;20195;-79
2023/12/28 01:05:41;;;;;;;2.37;1.80;;;;;;;5.26;72.01;98112.78;5099316;28;20206;-79
2023/12/28 01:08:08;;;;;;;1.80;1.60;;;;;;;5.34;71.34;98108.00;5099418;28;20275;-79
2023/12/28 01:10:36;;;;;;;2.40;1.87;;;;;;;5.42;70.69;98111.94;5098921;28;20255;-79
2023/12/28 01:13:02;;;;;;;2.30;1.93;;;;;;;5.50;70.91;98109.78;5099257;28;20216;-79
2023/12/28 01:15:29;;;;;;;2.47;2.10;;;;;;;5.57;70.66;98105.94;5099078;28;20243;-78
2023/12/28 01:17:55;;;;;;;2.07;1.57;;;;;;;5.67;69.24;98101.94;5099142;28;20235;-79
2023/12/28 01:20:22;;;;;;;2.50;1.50;;;;;;;5.80;68.05;98092.56;5099072;28;20282;-78
2023/12/28 01:22:49;;;;;;;1.53;1.30;;;;;;;5.90;68.02;98093.81;5098928;28;20294;-79
2023/12/28 01:25:16;;;;;;;1.47;1.33;;;;;;;5.89;67.47;98096.50;5098658;28;20184;-79
2023/12/28 01:27:44;;;;;;;1.67;1.40;;;;;;;5.79;68.10;98098.69;5098715;28;20261;-77
2023/12/28 01:30:10;;;;;;;2.03;1.27;;;;;;;5.77;68.39;98097.94;5098236;28;20626;-79
2023/12/28 01:32:37;;;;;;;1.93;1.37;;;;;;;5.70;68.59;98107.06;5098638;28;20271;-78
2023/12/28 01:35:04;;;;;;;1.53;1.23;;;;;;;5.63;69.55;98121.38;5098435;28;20259;-79
2023/12/28 01:37:33;;;;;;;2.17;1.53;;;;;;;5.49;70.38;98144.78;5098581;28;20216;-78
2023/12/28 01:39:59;;;;;;;2.80;1.83;;;;;;;5.33;71.64;98143.88;5098483;28;20222;-79
2023/12/28 01:42:26;;;;;;;6.33;3.50;;;;;;;5.24;73.01;98154.75;5097888;28;20226;-80
2023/12/28 01:44:54;;;;;;;5.33;3.77;;;;;;;5.14;73.78;98174.44;5097028;28;20198;-78
2023/12/28 01:47:20;;;;;;;4.73;3.40;;;;;;;5.03;75.22;98182.00;5078368;28;20218;-78
2023/12/28 01:49:47;;;;;;;3.77;2.30;;;;;;;5.03;74.90;98178.50;5075094;28;20200;-77
2023/12/28 01:52:14;;;;;;;8.57;4.60;;;;;;;5.04;74.63;98180.19;5073933;28;20250;-78
2023/12/28 01:54:41;;;;;;;16.30;7.63;;;;;;;4.99;74.26;98182.19;5082403;28;20209;-79
2023/12/28 01:57:07;;;;;;;10.03;6.10;;;;;;;5.02;74.35;98180.25;5075072;28;20218;-79
2023/12/28 01:59:34;;;;;;;12.03;6.53;;;;;;;5.04;73.78;98177.59;5075084;28;20235;-78
2023/12/28 02:02:02;;;;;;;6.83;3.77;;;;;;;4.98;74.53;98189.19;5073768;28;20254;-79
2023/12/28 02:04:29;;;;;;;2.40;1.77;;;;;;;4.98;74.34;98194.44;5072986;28;20211;-79
2023/12/28 02:06:57;;;;;;;1.70;1.33;;;;;;;5.04;73.51;98191.53;5073546;28;20552;-77
2023/12/28 02:09:25;;;;;;;2.03;1.50;;;;;;;5.03;73.87;98202.94;5077679;28;20200;-79
2023/12/28 02:11:52;;;;;;;1.77;1.50;;;;;;;5.02;73.54;98200.38;5097845;28;20249;-78
2023/12/28 02:14:19;;;;;;;2.10;1.70;;;;;;;4.97;74.37;98203.22;5097632;28;20207;-78
2023/12/28 02:16:50;;;;;;;2.00;1.60;;;;;;;4.99;74.46;98196.13;5097607;28;20198;-77
2023/12/28 02:19:32;;;;;;;3.17;1.70;;;;;;;5.00;73.71;98195.22;5075712;28;20584;-78
2023/12/28 02:22:00;;;;;;;1.97;1.60;;;;;;;5.06;74.16;98191.47;5074994;28;20295;-78
2023/12/28 02:24:27;;;;;;;2.63;1.80;;;;;;;5.09;74.16;98197.41;5081038;28;20276;-77
2023/12/28 02:26:54;;;;;;;3.03;1.73;;;;;;;5.17;73.29;98195.28;5074190;28;20207;-78
2023/12/28 02:29:21;;;;;;;2.87;1.87;;;;;;;5.18;72.99;98196.13;5090690;28;20213;-77
2023/12/28 02:31:54;;;;;;;2.60;1.70;;;;;;;5.17;73.94;98194.41;5084288;28;20231;-79
2023/12/28 02:34:28;;;;;;;2.10;1.70;;;;;;;5.16;73.77;98198.81;5094797;28;20203;-78
2023/12/28 02:36:57;;;;;;;3.30;1.93;;;;;;;5.12;74.15;98199.88;5097322;28;20195;-78
2023/12/28 02:39:26;;;;;;;3.23;1.53;;;;;;;5.16;73.67;98203.19;5095059;28;20238;-78
2023/12/28 02:41:52;;;;;;;3.67;1.90;;;;;;;5.10;74.48;98190.41;5093749;28;20227;-78
2023/12/28 02:44:20;;;;;;;2.50;1.80;;;;;;;5.13;73.49;98192.88;5078837;28;20294;-78
2023/12/28 02:46:47;;;;;;;4.37;1.80;;;;;;;5.18;73.02;98186.50;5080742;28;20229;-78
2023/12/28 02:49:15;;;;;;;1.97;1.70;;;;;;;5.20;73.25;98179.41;5080351;28;20210;-78
2023/12/28 02:51:42;;;;;;;2.00;1.60;;;;;;;5.18;74.30;98191.72;5086931;28;20693;-77
2023/12/28 02:54:09;;;;;;;1.97;1.60;;;;;;;5.15;73.02;98186.66;5088089;28;20219;-77
2023/12/28 02:56:35;;;;;;;1.73;1.50;;;;;;;5.20;73.57;98195.13;5089922;28;20207;-77
2023/12/28 02:59:04;;;;;;;2.10;1.90;;;;;;;5.26;72.97;98184.34;5076096;28;20222;-78
2023/12/28 03:01:32;;;;;;;1.70;1.50;;;;;;;5.33;72.41;98185.78;5081864;28;20717;-79
2023/12/28 03:03:58;;;;;;;1.70;1.43;;;;;;;5.36;73.34;98193.50;5077855;28;20225;-78
2023/12/28 03:06:24;;;;;;;2.37;1.70;;;;;;;5.40;71.51;98171.47;5096807;28;20191;-79
2023/12/28 03:08:51;;;;;;;2.63;1.60;;;;;;;5.41;71.97;98188.88;5088669;28;20314;-79
2023/12/28 03:11:17;;;;;;;2.00;1.40;;;;;;;5.44;71.45;98188.72;5077686;28;20231;-79
2023/12/28 03:13:44;;;;;;;2.27;1.50;;;;;;;5.40;71.59;98181.94;5075428;28;20298;-79
2023/12/28 03:16:10;;;;;;;1.97;1.60;;;;;;;5.40;71.40;98179.34;5092945;28;20210;-77
2023/12/28 03:18:38;;;;;;;2.13;1.50;;;;;;;5.40;72.23;98192.44;5084413;28;20211;-78
2023/12/28 03:21:05;;;;;;;1.90;1.47;;;;;;;5.35;72.55;98191.78;5076749;28;20227;-78
2023/12/28 03:23:32;;;;;;;2.10;1.47;;;;;;;5.38;72.24;98189.00;5078044;28;20631;-78
2023/12/28 03:25:58;;;;;;;1.90;1.50;;;;;;;5.48;71.33;98174.56;5077177;28;20260;-78
2023/12/28 03:28:25;;;;;;;2.00;1.40;;;;;;;5.54;70.73;98174.25;5076747;28;20301;-79
2023/12/28 03:30:51;;;;;;;2.80;1.43;;;;;;;5.62;70.75;98179.97;5076919;28;20210;-78
2023/12/28 03:33:18;;;;;;;2.40;1.37;;;;;;;5.67;70.08;98164.88;5076236;28;20256;-78
2023/12/28 03:35:46;;;;;;;3.00;1.60;;;;;;;5.74;69.25;98153.16;5076073;28;20234;-79
2023/12/28 03:38:12;;;;;;;1.50;1.40;;;;;;;5.82;68.50;98148.44;5076617;28;20203;-79
2023/12/28 03:40:39;;;;;;;1.87;1.50;;;;;;;5.84;69.09;98157.06;5076511;28;20234;-78
2023/12/28 03:43:05;;;;;;;2.30;1.53;;;;;;;5.84;69.64;98151.81;5076397;28;20230;-78
2023/12/28 03:45:32;;;;;;;2.77;1.43;;;;;;;5.89;69.20;98156.81;5076564;28;20214;-79
2023/12/28 03:47:58;;;;;;;1.83;1.30;;;;;;;5.91;69.35;98150.56;5076846;28;20203;-77
2023/12/28 03:50:25;;;;;;;2.10;1.80;;;;;;;6.04;68.99;98145.56;5076653;28;20207;-78
2023/12/28 03:52:52;;;;;;;2.20;1.33;;;;;;;6.24;66.75;98119.97;5078906;28;20231;-79
2023/12/28 03:55:19;;;;;;;2.33;1.40;;;;;;;6.37;67.54;98121.06;5076124;28;20294;-77
2023/12/28 03:57:46;;;;;;;1.63;1.20;;;;;;;6.55;66.56;98114.81;5076376;28;20211;-79
2023/12/28 04:00:16;;;;;;;1.77;1.27;;;;;;;6.77;64.29;98089.09;5076859;28;20249;-79
2023/12/28 04:02:43;;;;;;;1.10;0.90;;;;;;;6.87;64.04;98090.28;5080353;28;20249;-79
2023/12/28 04:05:09;;;;;;;1.40;1.30;;;;;;;6.95;63.02;98082.81;5088311;28;20222;-78
2023/12/28 04:07:36;;;;;;;1.87;1.40;;;;;;;7.08;62.96;98089.09;5097779;28;20430;-79
2023/12/28 04:10:05;;;;;;;2.00;1.10;;;;;;;7.14;63.18;98083.47;5100253;28;20255;-79
2023/12/28 04:12:31;;;;;;;1.70;1.17;;;;;;;7.14;62.42;98074.78;5100185;28;20212;-77
2023/12/28 04:14:57;;;;;;;2.90;1.50;;;;;;;7.09;62.61;98085.50;5100280;28;20255;-79
2023/12/28 04:17:24;;;;;;;2.20;1.40;;;;;;;7.06;62.54;98085.69;5100282;28;20267;-78
2023/12/28 04:19:50;;;;;;;1.77;1.17;;;;;;;6.98;63.14;98097.56;5099920;28;20230;-78
2023/12/28 04:22:17;;;;;;;1.30;1.20;;;;;;;6.88;63.96;98113.00;5089455;28;20235;-78
2023/12/28 04:24:43;;;;;;;1.40;1.10;;;;;;;6.90;65.08;98115.53;5081584;28;20233;-80
2023/12/28 04:27:12;;;;;;;2.23;1.93;;;;;;;7.04;63.30;98103.34;5074821;28;20331;-80
2023/12/28 04:29:38;;;;;;;1.63;1.00;;;;;;;7.12;63.45;98101.13;5075173;28;20199;-80
2023/12/28 04:32:05;;;;;;;1.77;1.33;;;;;;;7.16;63.09;98097.41;5072889;28;20228;-77
2023/12/28 04:34:32;;;;;;;2.10;1.47;;;;;;;7.20;62.91;98093.66;5074437;28;20588;-80
2023/12/28 04:36:58;;;;;;;2.00;1.30;;;;;;;7.25;63.17;98086.34;5075089;28;20204;-80
2023/12/28 04:39:25;;;;;;;1.40;1.30;;;;;;;7.26;63.23;98095.09;5074870;28;20204;-78
2023/12/28 04:41:53;;;;;;;1.20;1.10;;;;;;;7.27;62.91;98092.38;5080833;28;20232;-78
2023/12/28 04:44:21;;;;;;;2.07;1.53;;;;;;;7.18;62.83;98090.28;5081744;28;20220;-80
2023/12/28 04:46:47;;;;;;;1.50;1.00;;;;;;;7.12;63.19;98095.00;5076037;28;20203;-79
2023/12/28 04:49:14;;;;;;;1.70;1.20;;;;;;;7.16;62.52;98076.38;5074771;28;20203;-80
2023/12/28 04:51:43;;;;;;;2.10;1.33;;;;;;;7.16;62.65;98075.53;5073993;28;20230;-77
2023/12/28 04:54:10;;;;;;;1.60;1.40;;;;;;;7.17;62.78;98071.94;5073943;28;20270;-77
2023/12/28 04:56:36;;;;;;;1.80;1.20;;;;;;;7.15;63.04;98065.94;5096389;28;20259;-78
2023/12/28 04:59:03;;;;;;;2.73;1.50;;;;;;;7.19;62.57;98065.69;5099165;28;20218;-77
2023/12/28 05:01:32;;;;;;;2.10;1.50;;;;;;;7.09;62.39;98084.69;5098832;28;20223;-78
2023/12/28 05:03:59;;;;;;;1.30;1.20;;;;;;;6.99;63.59;98083.50;5099183;28;20196;-78
2023/12/28 05:06:28;;;;;;;1.20;1.10;;;;;;;6.94;63.18;98091.63;5099157;28;20188;-78
2023/12/28 05:08:55;;;;;;;1.77;1.40;;;;;;;6.83;63.79;98107.13;5099231;28;20214;-78
2023/12/28 05:11:21;;;;;;;1.70;1.40;;;;;;;6.78;64.49;98113.59;5099024;28;20212;-78
2023/12/28 05:13:48;;;;;;;1.30;1.20;;;;;;;6.79;64.30;98113.47;5099161;28;20259;-78
2023/12/28 05:16:14;;;;;;;1.57;1.30;;;;;;;6.79;64.39;98118.72;5098787;28;20255;-78
2023/12/28 05:18:42;;;;;;;2.17;1.47;;;;;;;6.81;63.68;98106.38;5098985;28;20196;-78
2023/12/28 05:21:08;;;;;;;2.23;1.07;;;;;;;6.87;63.29;98095.53;5098745;28;20222;-78
2023/12/28 05:23:35;;;;;;;1.27;1.17;;;;;;;6.93;63.47;98108.34;5098978;28;20192;-79
2023/12/28 05:26:01;;;;;;;1.70;1.50;;;;;;;6.93;63.76;98105.72;5098787;28;20205;-78
2023/12/28 05:28:28;;;;;;;2.40;1.27;;;;;;;6.96;63.61;98110.78;5098634;28;20191;-78
2023/12/28 05:30:54;;;;;;;1.97;1.30;;;;;;;6.97;63.89;98125.59;5098557;28;20281;-78
2023/12/28 05:33:21;;;;;;;1.83;1.30;;;;;;;7.03;63.91;98127.91;5098592;28;20550;-78
2023/12/28 05:35:48;;;;;;;2.00;1.40;;;;;;;7.08;64.41;98130.28;5098405;28;20202;-78
2023/12/28 05:38:15;;;;;;;1.83;1.27;;;;;;;7.10;64.46;98155.56;5098488;28;20187;-78
2023/12/28 05:40:42;;;;;;;1.77;1.17;;;;;;;7.14;64.04;98158.88;5098367;28;20233;-78
2023/12/28 05:43:09;;;;;;;1.47;1.20;;;;;;;7.19;64.09;98155.03;5098149;28;20218;-78
2023/12/28 05:45:35;;;;;;;1.43;1.20;;;;;;;7.27;62.72;98142.31;5098252;28;20207;-78
2023/12/28 05:48:02;;;;;;;1.40;1.10;;;;;;;7.28;62.97;98150.13;5098183;28;20195;-78
2023/12/28 05:50:28;;;;;;;1.27;1.10;;;;;;;7.27;62.39;98152.81;5098350;28;20192;-78
2023/12/28 05:52:56;;;;;;;2.37;1.50;;;;;;;7.28;62.72;98160.63;5098200;28;20207;-78
2023/12/28 05:55:23;;;;;;;2.07;1.20;;;;;;;7.32;62.76;98161.31;5097423;28;20198;-78
2023/12/28 05:57:49;;;;;;;1.50;1.30;;;;;;;7.39;63.25;98154.75;5087630;28;20199;-79
2023/12/28 06:00:16;;;;;;;1.73;1.40;;;;;;;7.43;62.54;98149.28;5080511;28;20606;-80
2023/12/28 06:02:42;;;;;;;1.60;1.40;;;;;;;7.49;63.35;98156.81;5080961;28;20731;-79
2023/12/28 06:05:09;;;;;;;2.43;1.20;;;;;;;7.53;63.49;98176.72;5081404;28;20223;-79
2023/12/28 06:07:35;;;;;;;1.80;1.07;;;;;;;7.57;62.77;98154.59;5081737;28;20212;-79
2023/12/28 06:10:04;;;;;;;2.33;1.33;;;;;;;7.62;63.26;98168.34;5081798;28;20207;-79
2023/12/28 06:12:30;;;;;;;2.27;1.30;;;;;;;7.72;63.37;98160.75;5081610;28;20228;-79
2023/12/28 06:14:57;;;;;;;2.03;1.20;;;;;;;7.79;63.17;98183.16;5081331;28;20223;-79
2023/12/28 06:17:23;;;;;;;1.97;1.03;;;;;;;7.86;62.98;98181.84;5081248;28;20304;-79
2023/12/28 06:19:50;;;;;;;1.80;1.50;;;;;;;7.93;62.92;98189.31;5081867;28;20276;-79
2023/12/28 06:22:17;;;;;;;1.10;0.97;;;;;;;7.98;62.74;98186.41;5081859;28;20237;-79
2023/12/28 06:24:43;;;;;;;1.30;1.20;;;;;;;8.04;62.64;98189.56;5081381;28;20223;-79
2023/12/28 06:27:11;;;;;;;4.40;2.13;;;;;;;8.14;62.34;98169.63;5081354;28;20219;-79
2023/12/28 06:29:38;;;;;;;2.13;1.60;;;;;;;8.23;62.15;98178.81;5081757;28;20603;-78
2023/12/28 06:32:05;;;;;;;1.43;1.23;;;;;;;8.26;62.17;98163.66;5081561;28;20235;-79
2023/12/28 06:34:31;;;;;;;1.80;1.30;;;;;;;8.24;62.79;98177.88;5081429;28;20228;-79
2023/12/28 06:36:58;;;;;;;1.60;1.43;;;;;;;8.18;63.43;98183.44;5081226;28;20206;-78
2023/12/28 06:39:24;;;;;;;1.70;1.40;;;;;;;8.10;64.02;98198.88;5079183;28;20209;-79
2023/12/28 06:41:51;;;;;;;1.57;1.47;;;;;;;8.03;64.87;98208.06;5079723;28;20237;-78
2023/12/28 06:44:19;;;;;;;3.33;1.73;;;;;;;8.09;64.35;98197.16;5079038;28;20706;-79
2023/12/28 06:46:45;;;;;;;2.63;1.90;;;;;;;8.00;64.31;98208.22;5079054;28;20209;-78
2023/12/28 06:49:12;;;;;;;3.13;2.30;;;;;;;7.85;63.75;98209.09;5079418;28;20223;-78
2023/12/28 06:51:39;;;;;;;2.23;1.70;;;;;;;7.69;64.28;98219.66;5080453;28;20226;-78
2023/12/28 06:54:05;;;;;;;3.37;2.30;;;;;;;7.61;65.34;98229.78;5080120;28;20215;-78
2023/12/28 06:56:32;;;;;;;3.27;2.20;;;;;;;7.54;66.38;98240.72;5079365;28;20221;-78
2023/12/28 06:58:58;;;;;;;2.50;1.87;;;;;;;7.49;66.99;98253.25;5080054;28;20301;-78
2023/12/28 07:01:26;;;;;;;2.57;2.13;;;;;;;7.47;67.94;98265.66;5079861;28;20252;-79
2023/12/28 07:03:53;;;;;;;2.20;1.93;;;;;;;7.46;68.26;98269.19;5079863;28;20307;-78
2023/12/28 07:06:19;;;;;;;3.17;1.97;;;;;;;7.47;68.69;98266.47;5079744;28;20254;-79
2023/12/28 07:08:46;;;;;;;2.33;1.90;;;;;;;7.53;68.70;98265.31;5080141;28;20600;-78
2023/12/28 07:11:12;;;;;;;2.80;1.90;;;;;;;7.57;68.39;98266.81;5081562;28;20240;-79
2023/12/28 07:13:38;;;;;;;2.33;1.80;;;;;;;7.60;69.46;98277.19;5081271;28;20212;-78
2023/12/28 07:16:07;;;;;;;1.90;1.70;;;;;;;7.62;70.12;98285.84;5080460;28;20213;-79
2023/12/28 07:18:35;;;;;;;2.47;1.80;;;;;;;7.70;69.89;98296.78;5080746;28;20212;-78
2023/12/28 07:21:01;;;;;;;1.93;1.73;;;;;;;7.68;69.52;98294.25;5079670;28;20236;-79
2023/12/28 07:23:28;;;;;;;1.97;1.70;;;;;;;7.74;69.58;98295.69;5079999;28;20208;-78
2023/12/28 07:25:54;;;;;;;2.20;2.00;;;;;;;7.74;69.88;98301.81;5079670;28;20207;-78
2023/12/28 07:28:21;;;;;;;4.47;2.00;;;;;;;7.79;69.70;98301.53;5080225;28;20212;-78
2023/12/28 07:30:47;;;;;;;2.00;1.80;;;;;;;7.81;70.57;98307.56;5079618;28;20210;-79
2023/12/28 07:33:14;;;;;;;2.33;1.80;;;;;;;7.87;70.77;98301.97;5079983;28;20235;-78
2023/12/28 07:35:42;;;;;;;2.23;1.60;;;;;;;7.87;70.52;98313.34;5079104;28;20630;-78
2023/12/28 07:38:08;;;;;;;2.97;1.80;;;;;;;7.95;69.76;98299.78;5079595;28;20641;-79
2023/12/28 07:40:35;;;;;;;1.80;1.47;;;;;;;7.94;70.68;98309.44;5079390;28;20214;-78
2023/12/28 07:43:02;;;;;;;1.90;1.50;;;;;;;7.93;71.63;98322.66;5079000;28;20230;-79
2023/12/28 07:45:28;;;;;;;1.73;1.60;;;;;;;7.98;72.20;98339.06;5078222;28;20209;-81
2023/12/28 07:47:55;;;;;;;2.60;1.67;;;;;;;8.00;71.59;98319.63;5076246;28;20211;-78
2023/12/28 07:50:21;;;;;;;2.20;1.70;;;;;;;8.00;72.06;98334.53;5071649;28;20374;-78
2023/12/28 07:52:50;;;;;;;2.03;1.43;;;;;;;8.02;72.81;98348.50;5073356;28;20234;-80
2023/12/28 07:55:16;;;;;;;2.00;1.40;;;;;;;8.07;73.61;98351.69;5072302;28;20742;-82
2023/12/28 07:57:43;;;;;;;1.40;1.30;;;;;;;8.12;74.19;98354.91;5072353;28;20210;-78
2023/12/28 08:00:10;;;;;;;1.93;1.53;;;;;;;8.16;74.59;98361.72;5070617;28;20213;-78
2023/12/28 08:02:37;;;;;;;2.03;1.50;;;;;;;8.16;76.14;98361.72;5072510;28;20240;-78
2023/12/28 08:05:04;;;;;;;1.83;1.43;;;;;;;8.17;76.75;98368.69;5073042;28;20570;-79
2023/12/28 08:07:30;;;;;;;1.73;1.20;;;;;;;8.23;77.11;98368.38;5078112;28;20220;-78
2023/12/28 08:09:58;;;;;;;2.10;1.70;;;;;;;8.22;78.20;98371.94;5079364;28;20213;-79
2023/12/28 08:12:27;;;;;;;2.07;1.57;;;;;;;8.21;79.25;98371.09;5081632;28;20238;-79
2023/12/28 08:14:53;;;;;;;2.03;1.60;;;;;;;8.16;80.87;98377.53;5081933;28;20214;-79
2023/12/28 08:17:20;;;;;;;1.80;1.40;;;;;;;8.17;81.34;98384.47;5080252;28;20218;-79
2023/12/28 08:19:46;;;;;;;2.20;1.43;;;;;;;8.19;82.03;98383.50;5080283;28;20221;-78
2023/12/28 08:22:13;;;;;;;1.80;1.60;;;;;;;8.20;82.28;98387.00;5081492;28;20265;-78
2023/12/28 08:24:39;;;;;;;2.23;1.63;;;;;;;8.20;81.92;98379.09;5087703;28;20216;-78
2023/12/28 08:27:07;;;;;;;1.87;1.57;;;;;;;8.22;81.54;98385.09;5099576;28;20244;-78
2023/12/28 08:29:34;;;;;;;1.90;1.50;;;;;;;8.26;81.65;98386.66;5099770;28;20261;-78
2023/12/28 08:32:00;;;;;;;1.83;1.57;;;;;;;8.24;81.78;98373.56;5099594;28;20211;-77
2023/12/28 08:34:27;;;;;;;2.00;1.50;;;;;;;8.30;81.17;98381.13;5099647;28;20288;-78
2023/12/28 08:36:54;;;;;;;1.93;1.47;;;;;;;8.37;81.50;98376.34;5099445;28;20190;-78
2023/12/28 08:39:20;;;;;;;2.70;1.53;;;;;;;8.34;81.79;98374.72;5099602;28;20234;-78
2023/12/28 08:41:47;;;;;;;2.40;1.47;;;;;;;8.42;80.63;98366.41;5098954;28;20226;-78
2023/12/28 08:44:15;;;;;;;1.83;1.53;;;;;;;8.43;79.93;98360.19;5099561;28;20206;-75
2023/12/28 08:46:41;;;;;;;1.57;1.30;;;;;;;8.47;79.68;98361.72;5099332;28;20186;-79
2023/12/28 08:49:08;;;;;;;2.03;1.60;;;;;;;8.50;79.49;98356.28;5099100;28;20282;-79
2023/12/28 08:51:34;;;;;;;2.97;1.90;;;;;;;8.52;80.07;98359.69;5099113;28;20228;-78
2023/12/28 08:54:01;;;;;;;2.53;1.90;;;;;;;8.53;80.44;98371.91;5088540;28;20218;-79
2023/12/28 08:56:27;;;;;;;3.80;1.90;;;;;;;8.42;81.30;98375.16;5077538;28;20289;-79
2023/12/28 08:58:54;;;;;;;4.70;2.00;;;;;;;8.38;81.96;98378.88;5081821;28;20221;-79
2023/12/28 09:01:25;;;;;;;2.90;2.10;;;;;;;8.33;80.63;98369.56;5094504;28;20223;-78
2023/12/28 09:03:53;;;;;;;2.97;1.90;;;;;;;8.29;79.53;98354.88;5098744;28;20202;-80
2023/12/28 09:06:21;;;;;;;2.40;1.80;;;;;;;8.27;79.13;98356.75;5097827;28;20188;-78
2023/12/28 09:08:50;;;;;;;3.10;1.83;;;;;;;8.27;78.92;98359.38;5098904;28;20341;-78
2023/12/28 09:11:17;;;;;;;2.73;2.10;;;;;;;8.25;79.11;98354.19;5099276;28;20211;-78
2023/12/28 09:13:44;;;;;;;3.40;2.00;;;;;;;8.29;78.51;98353.09;5099418;28;20265;-78
2023/12/28 09:16:12;;;;;;;2.40;1.83;;;;;;;8.29;78.08;98344.31;5099019;28;20195;-79
2023/12/28 09:18:40;;;;;;;2.60;1.53;;;;;;;8.30;78.32;98351.28;5098389;28;20228;-78
2023/12/28 09:21:07;;;;;;;2.53;1.90;;;;;;;8.29;78.92;98353.09;5098599;28;20281;-79
2023/12/28 09:23:35;;;;;;;3.53;1.90;;;;;;;8.27;80.14;98362.84;5099265;28;20252;-78
2023/12/28 09:26:03;;;;;;;4.63;2.10;;;;;;;8.22;82.51;98382.47;5098563;28;20200;-79
2023/12/28 09:28:30;;;;;;;3.80;2.67;;;;;;;8.13;85.65;98399.59;5096838;28;20201;-79
2023/12/28 09:30:56;;;;;;;3.63;2.57;;;;;;;8.06;89.52;98411.41;5098953;28;20264;-78
2023/12/28 09:33:23;;;;;;;4.77;2.60;;;;;;;8.04;91.67;98415.91;5099070;28;20218;-79
2023/12/28 09:35:51;;;;;;;3.50;2.80;;;;;;;8.07;92.36;98415.72;5098821;28;20196;-79
2023/12/28 09:38:17;;;;;;;4.53;3.40;;;;;;;8.13;93.62;98417.16;5098874;28;20185;-79
2023/12/28 09:40:44;;;;;;;4.60;2.70;;;;;;;8.21;91.83;98402.69;5087022;28;20304;-79
2023/12/28 09:43:16;;;;;;;3.40;2.67;;;;;;;8.32;90.71;98405.56;5077978;28;20236;-79
2023/12/28 09:45:42;;;;;;;3.07;2.50;;;;;;;8.40;90.91;98413.06;5077270;28;20620;-79
2023/12/28 09:48:10;;;;;;;3.07;2.10;;;;;;;8.45;89.99;98401.31;5079553;28;20217;-79
2023/12/28 09:50:37;;;;;;;4.30;2.70;;;;;;;8.56;88.93;98398.91;5078303;28;20442;-79
2023/12/28 09:53:05;;;;;;;3.23;2.37;;;;;;;8.65;89.72;98403.69;5078820;28;20303;-79
2023/12/28 09:55:31;;;;;;;3.93;2.90;;;;;;;8.71;90.41;98403.34;5077995;28;20217;-80
2023/12/28 09:57:59;;;;;;;4.60;2.60;;;;;;;8.78;91.40;98419.63;5076811;28;20210;-80
2023/12/28 10:00:26;;;;;;;4.47;2.60;;;;;;;8.86;91.37;98415.59;5077058;28;20208;-79
2023/12/28 10:02:53;;;;;;;4.70;2.83;;;;;;;8.99;91.17;98423.66;5073349;28;20451;-80
2023/12/28 10:05:19;;;;;;;2.67;2.03;;;;;;;9.06;92.38;98422.38;5070610;28;20210;-80
2023/12/28 10:07:48;;;;;;;2.93;2.10;;;;;;;9.18;92.78;98419.00;5075313;28;20221;-80
2023/12/28 10:10:16;;;;;;;2.13;1.80;;;;;;;9.26;93.92;98432.59;5078099;28;20218;-78
2023/12/28 10:12:43;;;;;;;3.03;2.00;;;;;;;9.33;94.15;98439.19;5060721;28;20215;-79
2023/12/28 10:15:10;;;;;;;3.20;2.23;;;;;;;9.41;94.78;98431.66;5063051;28;20228;-79
2023/12/28 10:17:36;;;;;;;3.57;2.00;;;;;;;9.50;94.90;98425.84;5069267;28;20290;-80
2023/12/28 10:20:04;;;;;;;2.90;2.08;;;;;;;9.54;95.91;98433.47;5079553;28;20440;-79
2023/12/28 10:22:32;;;;;;;1.90;1.70;;;;;;;9.65;95.42;98438.09;5081359;28;20235;-81
2023/12/28 10:25:00;;;;;;;3.87;1.80;;;;;;;9.71;95.41;98430.66;5082013;28;20215;-80
2023/12/28 10:27:28;;;;;;;3.10;2.07;;;;;;;9.74;95.54;98429.63;5083663;28;20300;-80
2023/12/28 10:29:56;;;;;;;3.20;2.00;;;;;;;9.78;95.82;98426.72;5084533;28;20209;-80
2023/12/28 10:32:24;;;;;;;4.60;2.27;;;;;;;9.76;96.98;98433.03;5083799;28;20227;-80
2023/12/28 10:34:52;;;;;;;3.97;1.83;;;;;;;9.80;97.13;98414.25;5087649;28;20273;-80
2023/12/28 10:37:20;;;;;;;3.80;2.50;;;;;;;9.79;97.84;98422.28;5086012;28;20434;-80
2023/12/28 10:39:49;;;;;;;3.57;2.73;;;;;;;9.78;97.94;98420.59;5085048;28;20300;-80
2023/12/28 10:42:22;;;;;;;3.53;2.03;;;;;;;9.76;98.21;98417.19;5079810;28;20235;-80
2023/12/28 10:44:55;;;;;;;3.83;2.50;;;;;;;9.76;98.79;98425.09;5081473;28;20208;-76
2023/12/28 10:47:25;;;;;;;3.50;2.30;;;;;;;9.78;99.14;98421.44;5084282;28;20211;-79
2023/12/28 10:49:56;;;;;;;3.90;2.40;;;;;;;9.78;99.38;98421.44;5085463;28;20197;-79
2023/12/28 10:52:28;;;;;;;5.23;2.27;;;;;;;9.81;99.41;98420.41;5085599;28;20223;-79
2023/12/28 10:55:04;;;;;;;4.10;1.87;;;;;;;9.86;99.59;98423.59;5086584;28;20206;-79
2023/12/28 10:57:38;;;;;;;3.43;2.30;;;;;;;9.85;100.00;98427.19;5086054;28;20242;-80
2023/12/28 11:00:11;;;;;;;4.87;3.30;;;;;;;9.76;100.00;98412.78;5085691;28;20214;-79
2023/12/28 11:02:41;;;;;;;5.33;3.70;;;;;;;9.66;99.65;98394.97;5085961;28;20237;-79
2023/12/28 11:05:08;;;;;;;5.67;4.23;;;;;;;9.62;99.00;98398.72;5085275;28;20243;-79
2023/12/28 11:07:36;;;;;;;5.70;4.23;;;;;;;9.50;99.45;98392.41;5083672;28;20221;-79
2023/12/28 11:10:06;;;;;;;4.87;3.57;;;;;;;9.53;99.65;98391.34;5082848;28;20214;-80
2023/12/28 11:12:33;;;;;;;5.17;2.90;;;;;;;9.56;100.00;98393.81;5084427;28;20315;-79
2023/12/28 11:15:00;;;;;;;2.93;1.57;;;;;;;9.70;100.00;98394.66;5086096;28;20222;-79
2023/12/28 11:17:31;;;;;;;2.63;1.20;;;;;;;9.89;99.80;98391.72;5083626;28;20205;-79
2023/12/28 11:19:58;;;;;;;1.90;1.20;;;;;;;10.03;99.54;98383.81;5082718;28;20199;-79
2023/12/28 11:22:26;;;;;;;1.00;0.90;;;;;;;10.17;98.64;98378.53;5079819;28;20247;-79
2023/12/28 11:24:54;;;;;;;2.90;1.23;;;;;;;10.21;98.85;98378.22;5082713;28;20211;-79
2023/12/28 11:27:20;;;;;;;1.63;1.10;;;;;;;10.26;98.43;98377.91;5082966;28;20261;-79
2023/12/28 11:29:48;;;;;;;2.03;1.23;;;;;;;10.29;97.56;98364.53;5082392;28;20207;-79
2023/12/28 11:32:15;;;;;;;2.37;1.30;;;;;;;10.31;97.26;98363.50;5082290;28;20232;-79
2023/12/28 11:34:43;;;;;;;1.33;1.00;;;;;;;10.32;97.18;98353.75;5082092;28;20213;-79
2023/12/28 11:37:14;;;;;;;1.50;1.20;;;;;;;10.33;98.30;98355.47;5082578;28;20660;-79
2023/12/28 11:39:44;;;;;;;1.33;1.07;;;;;;;10.32;97.48;98349.34;5081209;28;20214;-79
2023/12/28 11:42:12;;;;;;;1.77;1.13;;;;;;;10.34;97.14;98346.59;5083691;28;20242;-79